createdAt,value
2022-08-29T00:00:18.515Z,30.02
2022-08-29T00:02:49.892Z,28.30
2022-08-29T00:05:22.258Z,31.20
2022-08-29T00:07:53.829Z,31.83
2022-08-29T00:10:22.691Z,31.00
2022-08-29T00:12:51.857Z,32.10
2022-08-29T00:15:21.426Z,32.20
2022-08-29T00:17:50.333Z,31.83
2022-08-29T00:20:30.321Z,31.60
2022-08-29T00:23:03.267Z,31.35
2022-08-29T00:25:32.316Z,30.85
2022-08-29T00:28:01.125Z,34.33
2022-08-29T00:30:29.863Z,30.08
2022-08-29T00:32:58.689Z,30.77
2022-08-29T00:35:31.498Z,32.30
2022-08-29T00:38:01.022Z,32.65
2022-08-29T00:40:33.737Z,33.25
2022-08-29T00:43:02.414Z,33.22
2022-08-29T00:45:32.389Z,32.30
2022-08-29T00:48:06.379Z,33.20
2022-08-29T00:50:40.728Z,33.20
2022-08-29T00:53:13.347Z,31.77
2022-08-29T00:55:42.726Z,31.27
2022-08-29T00:58:24.830Z,31.50
2022-08-29T01:00:53.868Z,33.78
2022-08-29T01:03:22.760Z,34.97
2022-08-29T01:05:52.968Z,34.50
2022-08-29T01:08:21.548Z,34.28
2022-08-29T01:11:07.645Z,34.30
2022-08-29T01:13:41.895Z,32.05
2022-08-29T01:16:12.140Z,36.55
2022-08-29T01:18:44.155Z,33.47
2022-08-29T01:21:21.421Z,37.22
2022-08-29T01:23:59.795Z,35.20
2022-08-29T01:26:31.748Z,35.60
2022-08-29T01:29:00.596Z,36.85
2022-08-29T01:31:56.329Z,34.60
2022-08-29T01:34:28.232Z,37.28
2022-08-29T01:36:58.265Z,34.45
2022-08-29T01:39:30.630Z,35.88
2022-08-29T01:42:02.220Z,36.72
2022-08-29T01:44:30.788Z,39.13
2022-08-29T01:47:03.182Z,39.28
2022-08-29T01:49:35.153Z,36.25
2022-08-29T01:52:08.234Z,35.72
2022-08-29T01:54:37.086Z,37.00
2022-08-29T01:57:12.214Z,38.88
2022-08-29T01:59:41.839Z,35.40
2022-08-29T02:02:16.191Z,34.45
2022-08-29T02:04:46.182Z,35.45
2022-08-29T02:07:17.656Z,34.35
2022-08-29T02:09:47.054Z,35.40
2022-08-29T02:12:17.692Z,36.58
2022-08-29T02:14:46.646Z,35.25
2022-08-29T02:17:15.144Z,33.15
2022-08-29T02:19:44.258Z,31.73
2022-08-29T02:22:12.995Z,31.85
2022-08-29T02:24:41.799Z,30.85
2022-08-29T02:27:12.744Z,31.10
2022-08-29T02:29:42.821Z,27.88
2022-08-29T02:32:14.544Z,29.45
2022-08-29T02:34:47.782Z,29.42
2022-08-29T02:37:17.707Z,31.63
2022-08-29T02:39:46.245Z,29.27
2022-08-29T02:42:14.719Z,24.83
2022-08-29T02:44:45.081Z,27.00
2022-08-29T02:47:14.541Z,23.58
2022-08-29T02:49:43.906Z,20.95
2022-08-29T02:52:13.042Z,21.05
2022-08-29T02:54:41.707Z,20.35
2022-08-29T02:57:10.109Z,19.60
2022-08-29T02:59:38.536Z,18.08
2022-08-29T03:02:08.443Z,17.35
2022-08-29T03:04:36.930Z,16.05
2022-08-29T03:07:06.478Z,16.30
2022-08-29T03:09:34.985Z,16.60
2022-08-29T03:12:03.553Z,16.27
2022-08-29T03:14:32.043Z,17.45
2022-08-29T03:17:00.551Z,14.52
2022-08-29T03:19:30.513Z,14.20
2022-08-29T03:22:00.580Z,15.75
2022-08-29T03:24:29.676Z,15.10
2022-08-29T03:26:58.848Z,15.55
2022-08-29T03:29:27.379Z,13.63
2022-08-29T03:31:58.619Z,16.92
2022-08-29T03:34:28.641Z,17.02
2022-08-29T03:36:58.545Z,14.75
2022-08-29T03:39:27.311Z,13.20
2022-08-29T03:41:55.760Z,13.35
2022-08-29T03:44:24.522Z,13.32
2022-08-29T03:46:54.644Z,14.95
2022-08-29T03:49:23.043Z,14.65
2022-08-29T03:51:51.457Z,12.90
2022-08-29T03:54:21.591Z,15.75
2022-08-29T03:56:50.814Z,15.45
2022-08-29T03:59:20.073Z,14.07
2022-08-29T04:01:49.044Z,14.30
2022-08-29T04:04:31.806Z,14.63
2022-08-29T04:07:00.894Z,14.77
2022-08-29T04:09:31.353Z,15.85
2022-08-29T04:12:00.623Z,15.20
2022-08-29T04:14:29.708Z,15.75
2022-08-29T04:16:58.299Z,14.93
2022-08-29T04:19:26.679Z,14.82
2022-08-29T04:21:55.192Z,13.15
2022-08-29T04:24:23.900Z,13.43
2022-08-29T04:26:53.845Z,16.25
2022-08-29T04:29:22.293Z,15.00
2022-08-29T04:31:50.784Z,15.10
2022-08-29T04:34:20.952Z,16.42
2022-08-29T04:36:49.622Z,15.52
2022-08-29T04:39:18.973Z,15.13
2022-08-29T04:41:47.460Z,16.77
2022-08-29T04:44:17.236Z,15.45
2022-08-29T04:46:45.702Z,14.30
2022-08-29T04:49:14.117Z,17.52
2022-08-29T04:51:42.567Z,16.88
2022-08-29T04:54:11.119Z,17.17
2022-08-29T04:56:44.368Z,16.23
2022-08-29T04:59:18.891Z,18.63
2022-08-29T05:01:49.054Z,18.02
2022-08-29T05:04:17.678Z,16.80
2022-08-29T05:06:46.116Z,19.33
2022-08-29T05:09:15.326Z,20.00
2022-08-29T05:11:43.978Z,21.08
2022-08-29T05:14:12.481Z,17.20
2022-08-29T05:16:42.507Z,19.42
2022-08-29T05:19:11.777Z,18.60
2022-08-29T05:21:41.902Z,18.83
2022-08-29T05:24:13.236Z,19.80
2022-08-29T05:26:44.083Z,20.50
2022-08-29T05:29:13.627Z,21.65
2022-08-29T05:31:45.587Z,23.10
2022-08-29T05:34:34.177Z,23.75
2022-08-29T05:37:03.490Z,24.00
2022-08-29T05:39:31.925Z,27.00
2022-08-29T05:42:00.951Z,27.73
2022-08-29T05:44:35.258Z,27.83
2022-08-29T05:47:06.874Z,27.95
2022-08-29T05:49:37.505Z,29.48
2022-08-29T05:52:06.552Z,35.70
2022-08-29T05:54:36.834Z,28.42
2022-08-29T05:57:06.799Z,28.30
2022-08-29T05:59:35.477Z,27.83
2022-08-29T06:02:05.764Z,27.05
2022-08-29T06:04:34.233Z,29.17
2022-08-29T06:07:02.780Z,27.65
2022-08-29T06:09:31.253Z,27.33
2022-08-29T06:11:59.874Z,29.02
2022-08-29T06:14:28.994Z,28.35
2022-08-29T06:16:57.412Z,30.58
2022-08-29T06:19:29.315Z,30.80
2022-08-29T06:21:57.962Z,28.20
2022-08-29T06:24:26.440Z,29.27
2022-08-29T06:26:54.903Z,29.27
2022-08-29T06:29:23.491Z,28.73
2022-08-29T06:31:51.933Z,29.48
2022-08-29T06:34:20.495Z,29.38
2022-08-29T06:36:51.382Z,29.23
2022-08-29T06:39:20.048Z,30.83
2022-08-29T06:41:48.972Z,31.83
2022-08-29T06:44:17.431Z,31.73
2022-08-29T06:46:49.391Z,35.35
2022-08-29T06:49:20.284Z,30.02
2022-08-29T06:51:57.630Z,32.47
2022-08-29T06:54:29.583Z,31.42
2022-08-29T06:57:00.018Z,31.15
2022-08-29T06:59:28.884Z,31.08
2022-08-29T07:01:57.531Z,30.77
2022-08-29T07:04:26.767Z,29.58
2022-08-29T07:06:56.776Z,31.05
2022-08-29T07:09:26.232Z,31.38
2022-08-29T07:11:55.103Z,30.60
2022-08-29T07:14:23.795Z,31.35
2022-08-29T07:16:52.302Z,30.08
2022-08-29T07:19:20.735Z,32.90
2022-08-29T07:21:49.647Z,31.58
2022-08-29T07:24:23.001Z,30.77
2022-08-29T07:26:53.775Z,32.60
2022-08-29T07:29:23.147Z,31.05
2022-08-29T07:31:51.665Z,31.85
2022-08-29T07:34:21.002Z,30.88
2022-08-29T07:36:49.736Z,28.50
2022-08-29T07:39:20.829Z,31.15
2022-08-29T07:41:49.796Z,29.48
2022-08-29T07:44:19.678Z,30.17
2022-08-29T07:46:48.114Z,28.83
2022-08-29T07:49:16.602Z,27.45
2022-08-29T07:51:45.058Z,26.13
2022-08-29T07:54:16.908Z,24.98
2022-08-29T07:56:48.920Z,25.65
2022-08-29T07:59:19.421Z,21.88
2022-08-29T08:01:48.163Z,21.55
2022-08-29T08:04:16.805Z,18.48
2022-08-29T08:06:48.188Z,17.00
2022-08-29T08:09:17.539Z,15.30
2022-08-29T08:11:47.459Z,14.15
2022-08-29T08:14:16.237Z,12.32
2022-08-29T08:16:44.878Z,11.32
2022-08-29T08:19:14.247Z,10.43
2022-08-29T08:21:49.963Z,8.85
2022-08-29T08:24:19.994Z,8.10
2022-08-29T08:26:50.527Z,8.38
2022-08-29T08:29:19.287Z,7.32
2022-08-29T08:31:50.360Z,7.00
2022-08-29T08:34:20.112Z,6.10
2022-08-29T08:36:48.784Z,6.57
2022-08-29T08:39:17.344Z,5.97
2022-08-29T08:41:54.980Z,5.15
2022-08-29T08:44:44.398Z,5.60
2022-08-29T08:47:15.821Z,4.90
2022-08-29T08:49:51.364Z,4.93
2022-08-29T08:52:23.594Z,5.30
2022-08-29T08:55:03.174Z,7.53
2022-08-29T08:57:40.075Z,4.53
2022-08-29T09:00:11.231Z,4.93
2022-08-29T09:02:52.068Z,4.25
2022-08-29T09:05:36.242Z,4.63
2022-08-29T09:08:15.043Z,5.00
2022-08-29T09:10:58.080Z,4.60
2022-08-29T09:13:39.471Z,4.65
2022-08-29T09:16:15.173Z,4.68
2022-08-29T09:18:52.718Z,5.18
2022-08-29T09:21:41.668Z,4.28
2022-08-29T09:24:16.989Z,6.60
2022-08-29T09:26:45.388Z,4.65
2022-08-29T09:29:21.236Z,4.20
2022-08-29T09:32:07.428Z,4.60
2022-08-29T09:35:04.381Z,5.80
2022-08-29T09:37:31.378Z,4.55
2022-08-29T09:40:03.797Z,4.40
2022-08-29T09:42:36.029Z,4.65
2022-08-29T09:45:17.731Z,4.85
2022-08-29T09:47:46.664Z,4.65
2022-08-29T09:50:24.706Z,5.53
2022-08-29T09:52:56.278Z,4.60
2022-08-29T09:55:32.233Z,4.28
2022-08-29T09:58:05.164Z,4.05
2022-08-29T10:00:38.186Z,4.50
2022-08-29T10:03:12.181Z,4.50
2022-08-29T10:05:44.613Z,5.35
2022-08-29T10:08:29.559Z,4.68
2022-08-29T10:11:00.992Z,5.55
2022-08-29T10:13:36.472Z,11.57
2022-08-29T10:16:17.706Z,5.10
2022-08-29T10:18:51.465Z,5.50
2022-08-29T10:21:31.904Z,5.43
2022-08-29T10:24:29.935Z,5.93
2022-08-29T10:27:06.443Z,5.68
2022-08-29T10:32:32.244Z,5.43
2022-08-29T10:35:08.718Z,5.57
2022-08-29T10:37:49.758Z,6.95
2022-08-29T10:40:26.103Z,4.22
2022-08-29T10:43:28.185Z,4.13
2022-08-29T10:46:09.628Z,5.05
2022-08-29T10:48:46.296Z,4.70
2022-08-29T10:51:22.969Z,4.50
2022-08-29T10:53:58.638Z,4.00
2022-08-29T10:56:34.413Z,6.00
2022-08-29T10:59:10.159Z,4.53
2022-08-29T11:01:43.615Z,5.18
2022-08-29T11:04:21.706Z,4.30
2022-08-29T11:06:58.134Z,5.15
2022-08-29T11:09:30.610Z,4.20
2022-08-29T11:12:09.373Z,4.43
2022-08-29T11:14:44.985Z,3.90
2022-08-29T11:17:16.514Z,4.45
2022-08-29T11:19:59.287Z,4.93
2022-08-29T11:22:32.579Z,5.50
2022-08-29T11:25:07.857Z,4.82
2022-08-29T11:27:45.186Z,4.53
2022-08-29T11:30:20.530Z,4.85
2022-08-29T11:33:00.622Z,4.63
2022-08-29T11:35:42.106Z,5.72
2022-08-29T11:39:04.730Z,5.32
2022-08-29T11:41:36.637Z,5.70
2022-08-29T11:44:14.436Z,5.30
2022-08-29T11:46:48.877Z,4.85
2022-08-29T11:49:27.264Z,4.95
2022-08-29T11:52:00.986Z,5.00
2022-08-29T11:54:56.004Z,4.70
2022-08-29T11:57:48.034Z,5.22
2022-08-29T12:00:39.784Z,5.88
2022-08-29T12:03:48.677Z,5.65
2022-08-29T12:06:46.628Z,6.30
2022-08-29T12:09:44.521Z,5.05
2022-08-29T12:12:35.726Z,4.82
2022-08-29T12:15:39.061Z,5.00
2022-08-29T12:18:42.943Z,5.32
2022-08-29T12:21:45.710Z,4.53
2022-08-29T12:24:38.233Z,5.32
2022-08-29T12:27:06.752Z,4.97
2022-08-29T12:29:44.964Z,5.45
2022-08-29T12:32:40.301Z,4.80
2022-08-29T12:35:24.496Z,4.75
2022-08-29T12:38:05.699Z,4.47
2022-08-29T12:40:50.511Z,4.97
2022-08-29T12:43:37.454Z,4.50
2022-08-29T12:46:14.162Z,4.88
2022-08-29T12:48:46.269Z,4.07
2022-08-29T12:51:34.823Z,3.88
2022-08-29T12:54:03.433Z,5.03
2022-08-29T12:56:34.604Z,4.60
2022-08-29T12:59:06.096Z,3.97
2022-08-29T13:01:38.178Z,4.10
2022-08-29T13:04:14.875Z,4.50
2022-08-29T13:06:55.779Z,4.03
2022-08-29T13:09:32.980Z,4.38
2022-08-29T13:12:12.385Z,3.83
2022-08-29T13:15:07.105Z,3.50
2022-08-29T13:17:37.841Z,4.22
2022-08-29T13:20:46.107Z,4.22
2022-08-29T13:23:22.124Z,5.13
2022-08-29T13:25:56.435Z,4.47
2022-08-29T13:28:31.851Z,4.90
2022-08-29T13:31:29.798Z,4.20
2022-08-29T13:34:20.953Z,4.30
2022-08-29T13:37:02.564Z,4.85
2022-08-29T13:39:45.935Z,4.60
2022-08-29T13:42:37.413Z,3.92
2022-08-29T18:26:00.523Z,3.22
2022-08-29T18:28:29.803Z,3.38
2022-08-29T18:30:59.371Z,3.83
2022-08-29T18:33:44.319Z,3.55
2022-08-29T18:36:17.533Z,3.70
2022-08-29T18:38:45.992Z,3.20
2022-08-29T18:41:15.802Z,3.20
2022-08-29T18:43:44.823Z,3.88
2022-08-29T18:46:13.355Z,4.03
2022-08-29T18:48:44.933Z,4.10
2022-08-29T18:51:13.817Z,4.30
2022-08-29T18:53:42.305Z,4.35
2022-08-29T18:56:10.805Z,3.90
2022-08-29T18:58:44.357Z,3.90
2022-08-29T19:01:15.571Z,4.18
2022-08-29T19:03:55.306Z,4.30
2022-08-29T19:06:26.132Z,4.07
2022-08-29T19:08:55.200Z,4.68
2022-08-29T19:11:23.883Z,4.00
2022-08-29T19:13:54.510Z,4.40
2022-08-29T19:16:25.116Z,5.10
2022-08-29T19:18:54.105Z,3.63
2022-08-29T19:21:21.539Z,4.63
2022-08-29T19:23:52.176Z,5.00
2022-08-29T19:26:24.096Z,4.15
2022-08-29T19:28:56.678Z,4.78
2022-08-29T19:31:29.312Z,4.32
2022-08-29T19:33:58.911Z,4.35
2022-08-29T19:36:27.734Z,3.83
2022-08-29T19:38:56.227Z,4.10
2022-08-29T19:41:25.079Z,4.43
2022-08-29T19:43:55.474Z,4.47
2022-08-29T19:46:24.938Z,4.55
2022-08-29T19:48:54.178Z,4.03
2022-08-29T19:51:25.394Z,4.40
2022-08-29T19:53:57.466Z,3.75
2022-08-29T19:56:26.783Z,4.00
2022-08-29T19:58:57.610Z,5.00
2022-08-29T20:01:26.682Z,4.45
2022-08-29T20:03:55.535Z,4.15
2022-08-29T20:06:24.351Z,4.90
2022-08-29T20:08:53.333Z,4.70
2022-08-29T20:11:26.310Z,3.97
2022-08-29T20:13:57.919Z,4.50
2022-08-29T20:16:29.519Z,5.32
2022-08-29T20:18:59.025Z,4.68
2022-08-29T20:21:28.744Z,5.10
2022-08-29T20:23:58.402Z,4.90
2022-08-29T20:26:30.312Z,4.88
2022-08-29T20:29:01.774Z,5.57
2022-08-29T20:31:30.743Z,4.60
2022-08-29T20:33:59.466Z,5.50
2022-08-29T20:36:45.983Z,5.68
2022-08-29T20:39:16.593Z,4.80
2022-08-29T20:41:49.285Z,5.55
2022-08-29T20:44:20.534Z,4.88
2022-08-29T20:46:49.457Z,5.15
2022-08-29T20:49:21.442Z,4.88
2022-08-29T20:51:50.879Z,4.63
2022-08-29T20:54:22.287Z,4.28
2022-08-29T20:56:51.130Z,4.57
2022-08-29T20:59:23.524Z,3.88
2022-08-29T21:01:55.622Z,5.13
2022-08-29T21:04:41.762Z,3.90
2022-08-29T21:07:12.630Z,3.88
2022-08-29T21:09:43.394Z,4.50
2022-08-29T21:12:14.358Z,3.83
2022-08-29T21:14:44.234Z,4.93
2022-08-29T21:17:13.673Z,4.75
2022-08-29T21:19:43.182Z,4.32
2022-08-29T21:22:13.797Z,4.57
2022-08-29T21:24:42.710Z,5.38
2022-08-29T21:27:11.459Z,6.10
2022-08-29T21:29:40.575Z,5.28
2022-08-29T21:32:10.461Z,5.35
2022-08-29T21:34:38.959Z,5.10
2022-08-29T21:37:07.350Z,5.45
2022-08-29T21:39:36.314Z,5.22
2022-08-29T21:42:05.177Z,6.07
2022-08-29T21:44:33.682Z,5.18
2022-08-29T21:47:02.707Z,5.30
2022-08-29T21:49:32.683Z,5.05
2022-08-29T21:52:01.444Z,4.45
2022-08-29T21:54:30.005Z,5.53
2022-08-29T21:56:58.564Z,5.40
2022-08-29T21:59:28.184Z,5.63
2022-08-29T22:01:56.923Z,5.43
2022-08-29T22:04:29.039Z,5.68
2022-08-29T22:07:00.248Z,5.22
2022-08-29T22:09:30.207Z,5.68
2022-08-29T22:11:59.325Z,5.63
2022-08-29T22:14:42.137Z,6.57
2022-08-29T22:17:10.604Z,5.90
2022-08-29T22:19:39.665Z,6.32
2022-08-29T22:22:10.862Z,5.05
2022-08-29T22:24:39.246Z,7.10
2022-08-29T22:27:07.729Z,6.20
2022-08-29T22:29:37.585Z,6.00
2022-08-29T22:32:06.386Z,5.30
2022-08-29T22:34:34.993Z,6.50
2022-08-29T22:37:03.589Z,5.45
2022-08-29T22:39:33.511Z,6.80
2022-08-29T22:42:01.883Z,6.47
2022-08-29T22:47:20.431Z,5.03
2022-08-29T22:49:48.899Z,5.20
2022-08-29T22:52:17.415Z,6.20
2022-08-29T22:54:47.931Z,6.50
2022-08-29T22:57:18.365Z,6.38
2022-08-29T22:59:49.333Z,5.28
2022-08-29T23:02:19.678Z,5.53
2022-08-29T23:04:49.480Z,6.43
2022-08-29T23:07:18.168Z,6.38
2022-08-29T23:09:48.077Z,6.15
2022-08-29T23:12:16.621Z,6.85
2022-08-29T23:14:46.739Z,5.05
2022-08-29T23:17:16.200Z,6.63
2022-08-29T23:19:45.227Z,5.50
2022-08-29T23:22:14.089Z,6.38
2022-08-29T23:24:58.313Z,5.90
2022-08-29T23:27:30.282Z,6.13
2022-08-29T23:29:59.010Z,6.15
2022-08-29T23:32:28.192Z,6.30
2022-08-29T23:34:56.758Z,6.68
2022-08-29T23:37:25.309Z,6.05
2022-08-29T23:39:53.862Z,6.43
2022-08-29T23:42:22.483Z,5.25
2022-08-29T23:44:52.267Z,7.07
2022-08-29T23:47:20.776Z,6.05
2022-08-29T23:49:49.261Z,6.32
2022-08-29T23:52:18.076Z,6.32
2022-08-29T23:54:46.431Z,6.63
2022-08-29T23:57:14.970Z,6.95
